Time;durP1;ratioP1;P1;durP2;ratioP2;P2;SDS_P1;SDS_P2;PMS_P1;PMS_P2;Temp;Humidity;BMP_temperature;BMP_pressure;BME280_temperature;BME280_humidity;BME280_pressure;Samples;Min_cycle;Max_cycle;Signal;HPM_P1;HPM_P2
2023/03/09 00:00:00;;;;;;;9.02;4.22;;;3.70;73.20;;;;;;5038422;28;20051;-74
2023/03/09 00:02:27;;;;;;;8.70;3.58;;;3.70;72.80;;;;;;5034963;28;20623;-74
2023/03/09 00:04:55;;;;;;;9.30;3.85;;;3.70;72.70;;;;;;5037455;28;20046;-74
2023/03/09 00:07:22;;;;;;;9.63;4.33;;;3.60;72.50;;;;;;5031323;28;20068;-74
2023/03/09 00:09:49;;;;;;;8.95;3.72;;;3.60;72.80;;;;;;5044131;28;20174;-73
2023/03/09 00:12:16;;;;;;;10.15;4.45;;;3.60;73.10;;;;;;5036977;28;20490;-74
2023/03/09 00:14:43;;;;;;;9.20;3.90;;;3.60;73.20;;;;;;5037287;28;20046;-74
2023/03/09 00:17:10;;;;;;;9.88;5.15;;;3.60;73.20;;;;;;5044309;28;20042;-74
2023/03/09 00:19:37;;;;;;;9.40;4.07;;;3.60;73.20;;;;;;5042952;28;20154;-74
2023/03/09 00:22:05;;;;;;;9.65;4.22;;;3.70;73.20;;;;;;5043742;28;20049;-74
2023/03/09 00:24:32;;;;;;;9.40;4.13;;;3.70;73.20;;;;;;5033307;28;20139;-74
2023/03/09 00:27:01;;;;;;;9.43;3.97;;;3.70;73.30;;;;;;5048140;28;20742;-73
2023/03/09 00:29:30;;;;;;;8.82;3.90;;;3.70;73.40;;;;;;5040653;28;20054;-74
2023/03/09 00:31:57;;;;;;;8.00;3.63;;;3.70;73.20;;;;;;5018618;28;20042;-74
2023/03/09 00:34:24;;;;;;;7.97;3.47;;;3.70;73.30;;;;;;5046852;28;20666;-74
2023/03/09 00:36:51;;;;;;;8.88;4.10;;;3.70;73.20;;;;;;5032260;28;20112;-73
2023/03/09 00:39:19;;;;;;;10.30;3.92;;;3.70;73.20;;;;;;5029100;28;20580;-73
2023/03/09 00:41:47;;;;;;;9.13;3.83;;;3.70;73.20;;;;;;5029696;28;20140;-74
2023/03/09 00:44:14;;;;;;;9.10;3.80;;;3.70;73.30;;;;;;5045815;28;20480;-74
2023/03/09 00:46:42;;;;;;;9.73;4.10;;;3.70;73.30;;;;;;5031163;28;20057;-74
2023/03/09 00:49:12;;;;;;;10.57;4.55;;;3.70;73.50;;;;;;5045234;28;20547;-74
2023/03/09 00:51:41;;;;;;;9.98;4.57;;;3.70;73.40;;;;;;5014429;28;20482;-74
2023/03/09 00:54:10;;;;;;;10.75;5.10;;;3.70;73.40;;;;;;5029352;28;20057;-74
2023/03/09 00:56:39;;;;;;;11.63;4.70;;;3.80;73.40;;;;;;5016070;28;20439;-74
2023/03/09 00:59:06;;;;;;;11.88;4.80;;;3.70;73.30;;;;;;5045630;28;20132;-74
2023/03/09 01:01:33;;;;;;;12.43;5.20;;;3.70;73.20;;;;;;5048287;28;20131;-74
2023/03/09 01:04:01;;;;;;;10.77;4.85;;;3.70;73.30;;;;;;5045268;28;20060;-74
2023/03/09 01:06:28;;;;;;;13.57;6.10;;;3.70;73.40;;;;;;5022302;28;20050;-73
2023/03/09 01:08:55;;;;;;;13.03;4.90;;;3.70;73.40;;;;;;5031718;28;20458;-74
2023/03/09 01:11:23;;;;;;;12.52;5.10;;;3.60;73.70;;;;;;5043541;28;20586;-74
2023/03/09 01:13:53;;;;;;;11.80;5.63;;;3.70;73.70;;;;;;5028989;28;20050;-73
2023/03/09 01:16:20;;;;;;;12.45;5.28;;;3.70;73.80;;;;;;5038094;28;20206;-75
2023/03/09 01:18:48;;;;;;;12.85;5.30;;;3.70;74.00;;;;;;5048436;28;20140;-74
2023/03/09 01:21:15;;;;;;;13.53;5.20;;;3.70;73.90;;;;;;5046810;28;20053;-73
2023/03/09 01:23:42;;;;;;;11.30;4.80;;;3.70;74.10;;;;;;5025407;28;20124;-74
2023/03/09 01:26:09;;;;;;;10.77;4.68;;;3.70;73.90;;;;;;5044663;28;20124;-74
2023/03/09 01:28:37;;;;;;;12.60;5.47;;;3.80;74.10;;;;;;5047728;28;20049;-74
2023/03/09 01:31:09;;;;;;;11.95;5.28;;;3.80;73.80;;;;;;5031215;28;20132;-74
2023/03/09 01:33:36;;;;;;;10.83;4.97;;;3.70;73.70;;;;;;5037504;28;20404;-74
2023/03/09 01:36:06;;;;;;;11.52;5.15;;;3.70;73.80;;;;;;5033260;28;20512;-73
2023/03/09 01:38:33;;;;;;;10.70;4.85;;;3.70;74.00;;;;;;5031640;28;20096;-73
2023/03/09 01:41:00;;;;;;;13.55;5.18;;;3.70;74.00;;;;;;5032534;28;20078;-74
2023/03/09 01:43:39;;;;;;;12.60;4.97;;;3.70;73.70;;;;;;5039190;28;20049;-74
2023/03/09 01:46:33;;;;;;;10.90;4.73;;;3.70;73.70;;;;;;5045651;28;20053;-74
2023/03/09 01:49:07;;;;;;;11.43;4.68;;;3.60;73.70;;;;;;5040273;28;20103;-73
2023/03/09 01:51:38;;;;;;;11.10;4.53;;;3.60;73.70;;;;;;5045074;28;20060;-74
2023/03/09 01:54:08;;;;;;;11.20;4.40;;;3.50;73.60;;;;;;5032671;28;20535;-74
2023/03/09 01:56:36;;;;;;;12.65;4.80;;;3.50;73.70;;;;;;5011560;28;20054;-74
2023/03/09 01:59:06;;;;;;;12.00;5.13;;;3.50;73.70;;;;;;5040377;28;20049;-73
2023/03/09 02:01:36;;;;;;;11.60;4.90;;;3.50;73.90;;;;;;5011483;28;20046;-73
2023/03/09 02:04:08;;;;;;;10.23;4.82;;;3.50;74.10;;;;;;5028684;28;20045;-74
2023/03/09 02:06:36;;;;;;;11.82;5.10;;;3.50;74.10;;;;;;5029311;28;20141;-74
2023/03/09 02:09:11;;;;;;;11.82;5.30;;;3.50;74.10;;;;;;5035928;28;20054;-74
2023/03/09 02:11:39;;;;;;;10.87;4.80;;;3.50;74.30;;;;;;5033257;28;20081;-74
2023/03/09 02:14:08;;;;;;;12.27;5.13;;;3.50;74.40;;;;;;5045375;28;20055;-74
2023/03/09 02:16:36;;;;;;;12.18;5.85;;;3.50;74.40;;;;;;5044084;28;20629;-74
2023/03/09 02:19:04;;;;;;;11.05;4.70;;;3.60;74.20;;;;;;5042143;28;20123;-74
2023/03/09 02:21:42;;;;;;;11.35;5.05;;;3.60;74.30;;;;;;5028758;28;20057;-73
2023/03/09 02:24:18;;;;;;;11.80;5.10;;;3.60;74.30;;;;;;5041254;28;20073;-74
2023/03/09 02:26:50;;;;;;;10.20;4.88;;;3.60;74.20;;;;;;5035507;28;20046;-73
2023/03/09 02:29:19;;;;;;;12.80;4.88;;;3.60;74.10;;;;;;5030421;28;20064;-74
2023/03/09 02:31:46;;;;;;;11.77;4.90;;;3.60;74.40;;;;;;5031005;28;20126;-74
2023/03/09 02:34:13;;;;;;;11.07;5.07;;;3.60;74.30;;;;;;5044062;28;20128;-73
2023/03/09 02:36:45;;;;;;;10.30;4.33;;;3.60;74.40;;;;;;5023745;28;20046;-73
2023/03/09 02:39:19;;;;;;;10.90;4.90;;;3.60;74.00;;;;;;5044616;28;20061;-74
2023/03/09 02:41:47;;;;;;;10.95;4.93;;;3.60;74.20;;;;;;5030841;28;20140;-74
2023/03/09 02:44:19;;;;;;;11.00;4.70;;;3.60;74.00;;;;;;5035079;28;20566;-74
2023/03/09 02:46:46;;;;;;;9.55;4.38;;;3.60;74.10;;;;;;5015310;28;20053;-73
2023/03/09 02:49:13;;;;;;;10.80;4.40;;;3.60;74.10;;;;;;5048102;28;20057;-74
2023/03/09 02:51:42;;;;;;;10.40;4.70;;;3.60;74.20;;;;;;5046986;28;20499;-74
2023/03/09 02:54:10;;;;;;;10.20;4.65;;;3.60;74.10;;;;;;5039585;28;20104;-71
2023/03/09 02:56:37;;;;;;;9.75;4.70;;;3.60;74.00;;;;;;5028307;28;20053;-71
2023/03/09 02:59:04;;;;;;;10.55;4.68;;;3.50;74.30;;;;;;5026634;28;20386;-71
2023/03/09 03:01:33;;;;;;;10.47;4.80;;;3.60;74.00;;;;;;5034699;28;20076;-71
2023/03/09 03:04:00;;;;;;;10.32;4.88;;;3.50;74.00;;;;;;5010966;28;20050;-71
2023/03/09 03:06:27;;;;;;;9.55;4.60;;;3.50;73.90;;;;;;5030341;28;20072;-71
2023/03/09 03:08:54;;;;;;;9.25;4.35;;;3.50;73.80;;;;;;5030074;28;20045;-71
2023/03/09 03:11:21;;;;;;;9.95;4.60;;;3.50;74.00;;;;;;5021589;28;20076;-71
2023/03/09 03:13:48;;;;;;;11.23;4.70;;;3.50;74.20;;;;;;5027666;28;20538;-71
2023/03/09 03:16:15;;;;;;;9.88;4.55;;;3.50;74.10;;;;;;5030258;28;20051;-71
2023/03/09 03:18:45;;;;;;;11.18;4.72;;;3.50;74.20;;;;;;5043513;28;20060;-72
2023/03/09 03:21:12;;;;;;;11.30;4.68;;;3.60;74.10;;;;;;5026921;28;20140;-71
2023/03/09 03:23:41;;;;;;;10.05;4.45;;;3.60;74.10;;;;;;5039843;28;20137;-71
2023/03/09 03:26:10;;;;;;;10.93;4.20;;;3.60;74.00;;;;;;5031693;28;20089;-71
2023/03/09 03:28:41;;;;;;;11.57;4.75;;;3.60;73.90;;;;;;5026863;28;20065;-71
2023/03/09 03:31:16;;;;;;;11.73;4.70;;;3.50;73.60;;;;;;5013327;28;20053;-71
2023/03/09 03:33:45;;;;;;;10.93;4.47;;;3.50;73.70;;;;;;5043447;28;20084;-71
2023/03/09 03:36:12;;;;;;;11.73;4.50;;;3.50;73.90;;;;;;5030393;28;20056;-71
2023/03/09 03:38:41;;;;;;;13.20;5.00;;;3.50;73.80;;;;;;5027010;28;20126;-71
2023/03/09 03:41:09;;;;;;;12.32;4.68;;;3.50;73.90;;;;;;5038877;28;20504;-71
2023/03/09 03:43:37;;;;;;;10.70;4.95;;;3.50;73.80;;;;;;5026781;28;20096;-71
2023/03/09 03:46:05;;;;;;;11.57;4.72;;;3.50;73.80;;;;;;5012127;28;20046;-71
2023/03/09 03:48:32;;;;;;;11.48;4.80;;;3.50;73.90;;;;;;5030138;28;20050;-71
2023/03/09 03:51:01;;;;;;;11.13;4.80;;;3.50;74.10;;;;;;5042463;28;20132;-71
2023/03/09 03:53:28;;;;;;;11.82;5.10;;;3.60;74.20;;;;;;5026590;28;20046;-71
2023/03/09 03:55:56;;;;;;;12.77;5.07;;;3.60;74.10;;;;;;5018291;28;20551;-71
2023/03/09 03:58:23;;;;;;;11.07;4.80;;;3.60;74.00;;;;;;5017511;28;20053;-71
2023/03/09 04:00:50;;;;;;;11.80;4.85;;;3.60;74.10;;;;;;5044154;28;20061;-71
2023/03/09 04:03:21;;;;;;;11.97;4.80;;;3.60;74.00;;;;;;5009904;28;20045;-71
2023/03/09 04:05:48;;;;;;;10.05;4.50;;;3.60;74.10;;;;;;5044265;28;20140;-71
2023/03/09 04:08:18;;;;;;;10.82;4.78;;;3.60;74.00;;;;;;5027219;28;20296;-71
2023/03/09 04:10:46;;;;;;;10.75;4.72;;;3.60;73.90;;;;;;5009915;28;20473;-71
2023/03/09 04:13:14;;;;;;;11.60;5.43;;;3.60;74.00;;;;;;5017793;28;20149;-71
2023/03/09 04:15:42;;;;;;;11.50;4.83;;;3.60;74.00;;;;;;5016768;28;20059;-71
2023/03/09 04:18:09;;;;;;;11.80;5.10;;;3.60;74.00;;;;;;5047121;28;20057;-71
2023/03/09 04:20:39;;;;;;;11.20;5.13;;;3.60;74.00;;;;;;5026019;28;20046;-71
2023/03/09 04:23:06;;;;;;;9.82;4.65;;;3.60;73.90;;;;;;5026923;28;20606;-71
2023/03/09 04:25:37;;;;;;;11.93;5.32;;;3.60;73.90;;;;;;5038231;28;20057;-71
2023/03/09 04:28:05;;;;;;;11.10;5.23;;;3.60;73.90;;;;;;5031603;28;20492;-71
2023/03/09 04:30:42;;;;;;;13.60;5.50;;;3.60;74.00;;;;;;5012477;28;20054;-71
2023/03/09 04:33:12;;;;;;;12.07;4.90;;;3.60;74.10;;;;;;5033338;28;20141;-71
2023/03/09 04:35:42;;;;;;;14.15;6.00;;;3.60;73.80;;;;;;5045995;28;20046;-71
2023/03/09 04:38:13;;;;;;;12.20;5.10;;;3.60;73.90;;;;;;5041507;28;20053;-71
2023/03/09 04:40:43;;;;;;;11.40;5.17;;;3.60;73.80;;;;;;5013183;28;20420;-71
2023/03/09 04:43:11;;;;;;;12.88;5.82;;;3.60;73.80;;;;;;5023573;28;20072;-71
2023/03/09 04:45:38;;;;;;;11.85;5.28;;;3.50;74.00;;;;;;5045864;28;20050;-71
2023/03/09 04:48:06;;;;;;;13.60;5.80;;;3.50;74.10;;;;;;5020970;28;20073;-71
2023/03/09 04:50:36;;;;;;;12.95;6.13;;;3.50;74.10;;;;;;5035569;28;20056;-71
2023/03/09 04:53:05;;;;;;;13.60;5.30;;;3.50;74.10;;;;;;5032795;28;20049;-71
2023/03/09 04:55:35;;;;;;;12.10;5.63;;;3.50;74.10;;;;;;5046029;28;20160;-71
2023/03/09 04:58:05;;;;;;;13.15;6.03;;;3.50;74.10;;;;;;5049108;28;20045;-71
2023/03/09 05:00:33;;;;;;;14.82;6.15;;;3.50;74.00;;;;;;5047138;28;20057;-71
2023/03/09 05:03:02;;;;;;;13.80;6.30;;;3.50;74.10;;;;;;5029342;28;20057;-72
2023/03/09 05:05:29;;;;;;;13.77;6.00;;;3.50;74.00;;;;;;5037185;28;20053;-71
2023/03/09 05:07:58;;;;;;;13.48;6.30;;;3.50;74.10;;;;;;5016858;28;20557;-71
2023/03/09 05:10:25;;;;;;;16.23;7.05;;;3.50;73.90;;;;;;5049788;28;20057;-71
2023/03/09 05:12:56;;;;;;;14.77;6.53;;;3.50;74.20;;;;;;5045315;28;20129;-71
2023/03/09 05:15:28;;;;;;;14.20;6.68;;;3.50;74.10;;;;;;5028924;28;20427;-72
2023/03/09 05:17:56;;;;;;;14.50;7.00;;;3.50;74.20;;;;;;5046679;28;20503;-71
2023/03/09 05:20:24;;;;;;;15.55;6.72;;;3.50;74.20;;;;;;5028711;28;20622;-71
2023/03/09 05:22:58;;;;;;;15.77;6.47;;;3.50;74.30;;;;;;5027777;28;20056;-74
2023/03/09 05:25:26;;;;;;;15.27;6.35;;;3.50;74.20;;;;;;5045546;28;20053;-74
2023/03/09 05:27:54;;;;;;;16.83;7.43;;;3.50;74.10;;;;;;5018116;28;20050;-73
2023/03/09 05:30:21;;;;;;;16.30;6.70;;;3.50;74.10;;;;;;5028256;28;20046;-72
2023/03/09 05:32:50;;;;;;;15.45;6.72;;;3.50;74.30;;;;;;5026037;28;20046;-72
2023/03/09 05:35:19;;;;;;;18.20;7.10;;;3.50;74.30;;;;;;5030145;28;20056;-72
2023/03/09 05:37:46;;;;;;;16.63;7.13;;;3.50;74.30;;;;;;5044249;28;20058;-71
2023/03/09 05:40:22;;;;;;;16.38;7.65;;;3.50;74.40;;;;;;5032525;28;20056;-71
2023/03/09 05:42:51;;;;;;;14.83;6.73;;;3.50;74.40;;;;;;5028177;28;20050;-72
2023/03/09 05:45:18;;;;;;;16.00;6.63;;;3.50;74.20;;;;;;5023384;28;20119;-71
2023/03/09 05:47:45;;;;;;;17.95;7.57;;;3.40;74.30;;;;;;5027909;28;20045;-71
2023/03/09 05:50:14;;;;;;;17.38;7.10;;;3.40;74.50;;;;;;5017366;28;20598;-71
2023/03/09 05:52:41;;;;;;;16.58;7.35;;;3.30;74.40;;;;;;5036294;28;21097;-74
2023/03/09 05:55:09;;;;;;;16.63;7.27;;;3.30;74.40;;;;;;5035404;28;20046;-73
2023/03/09 05:57:40;;;;;;;16.48;6.93;;;3.30;74.60;;;;;;5028510;28;20042;-72
2023/03/09 06:00:09;;;;;;;18.50;7.30;;;3.30;74.60;;;;;;5012585;28;20046;-72
2023/03/09 06:02:48;;;;;;;20.45;8.93;;;3.30;74.60;;;;;;5025174;28;20058;-72
2023/03/09 06:05:22;;;;;;;23.60;9.65;;;3.30;74.70;;;;;;5019443;28;20526;-72
2023/03/09 06:07:51;;;;;;;23.37;11.13;;;3.30;74.70;;;;;;5027952;28;20060;-72
2023/03/09 06:10:18;;;;;;;18.27;8.10;;;3.30;74.80;;;;;;5043431;28;20112;-72
2023/03/09 06:12:45;;;;;;;16.75;7.65;;;3.30;74.80;;;;;;5031129;28;20514;-72
2023/03/09 06:15:13;;;;;;;18.13;8.45;;;3.30;74.80;;;;;;5045386;28;20145;-72
2023/03/09 06:17:41;;;;;;;16.80;7.47;;;3.30;75.10;;;;;;5027684;28;20547;-73
2023/03/09 06:20:13;;;;;;;16.13;6.83;;;3.30;75.00;;;;;;5017688;28;20140;-72
2023/03/09 06:22:47;;;;;;;15.57;6.90;;;3.40;75.00;;;;;;5030534;28;20053;-72
2023/03/09 06:25:15;;;;;;;17.10;7.60;;;3.30;75.00;;;;;;5028679;28;20508;-72
2023/03/09 06:27:43;;;;;;;15.30;6.88;;;3.40;75.10;;;;;;5047888;28;20079;-72
2023/03/09 06:30:13;;;;;;;16.88;7.38;;;3.30;75.00;;;;;;5028243;28;20056;-72
2023/03/09 06:32:41;;;;;;;17.10;7.17;;;3.30;75.10;;;;;;5027719;28;20097;-72
2023/03/09 06:35:10;;;;;;;14.45;6.88;;;3.40;75.30;;;;;;5018385;28;20151;-72
2023/03/09 06:37:37;;;;;;;16.60;7.45;;;3.40;75.10;;;;;;5011086;28;20061;-72
2023/03/09 06:40:11;;;;;;;17.17;7.00;;;3.30;75.10;;;;;;5027984;28;20050;-72
2023/03/09 06:42:38;;;;;;;16.35;6.97;;;3.30;75.20;;;;;;5027170;28;20516;-72
2023/03/09 06:45:07;;;;;;;15.17;6.97;;;3.40;75.30;;;;;;5025778;28;20061;-72
2023/03/09 06:47:34;;;;;;;14.65;6.82;;;3.40;75.30;;;;;;5028336;28;20528;-72
2023/03/09 06:50:05;;;;;;;15.40;6.10;;;3.30;75.30;;;;;;5043693;28;20054;-72
2023/03/09 06:52:33;;;;;;;16.95;6.32;;;3.30;75.30;;;;;;5035600;28;20049;-72
2023/03/09 06:55:00;;;;;;;17.42;6.85;;;3.30;75.40;;;;;;5027625;28;20606;-72
2023/03/09 06:57:30;;;;;;;16.87;7.00;;;3.30;75.40;;;;;;5044477;28;20138;-72
2023/03/09 06:59:58;;;;;;;16.30;7.35;;;3.30;75.30;;;;;;5027403;28;20567;-72
2023/03/09 07:02:25;;;;;;;15.38;6.75;;;3.30;75.40;;;;;;5037471;28;20136;-72
2023/03/09 07:04:53;;;;;;;15.57;6.80;;;3.30;75.50;;;;;;5027373;28;20471;-73
2023/03/09 07:07:21;;;;;;;16.63;7.22;;;3.20;75.60;;;;;;5027556;28;20103;-72
2023/03/09 07:09:48;;;;;;;14.97;6.40;;;3.10;75.70;;;;;;5045054;28;20050;-72
2023/03/09 07:12:15;;;;;;;15.02;6.68;;;3.10;76.10;;;;;;5039806;28;20054;-73
2023/03/09 07:14:43;;;;;;;15.80;7.15;;;3.10;76.10;;;;;;5041702;28;20557;-73
2023/03/09 07:17:13;;;;;;;16.58;7.05;;;3.10;76.20;;;;;;5039366;28;20065;-73
2023/03/09 07:19:41;;;;;;;17.95;7.22;;;3.10;76.50;;;;;;5044078;28;20046;-73
2023/03/09 07:22:10;;;;;;;15.07;6.60;;;3.10;76.50;;;;;;5040523;28;20042;-73
2023/03/09 07:24:38;;;;;;;15.57;7.05;;;3.10;76.80;;;;;;5040819;28;20118;-72
2023/03/09 07:27:07;;;;;;;16.13;7.05;;;3.10;76.70;;;;;;5028455;28;20415;-73
2023/03/09 07:29:34;;;;;;;17.83;7.05;;;3.20;76.70;;;;;;5041547;28;20084;-73
2023/03/09 07:32:03;;;;;;;15.45;7.10;;;3.20;76.70;;;;;;5032403;28;20047;-73
2023/03/09 07:34:32;;;;;;;17.53;6.90;;;3.20;76.70;;;;;;5036225;28;20897;-73
2023/03/09 07:37:00;;;;;;;16.35;7.05;;;3.20;76.80;;;;;;5036901;28;20081;-73
2023/03/09 07:39:27;;;;;;;18.77;8.05;;;3.30;76.70;;;;;;5039581;28;20120;-73
2023/03/09 07:41:54;;;;;;;15.93;7.13;;;3.30;76.60;;;;;;5042760;28;20204;-73
2023/03/09 07:44:21;;;;;;;17.15;7.93;;;3.30;76.70;;;;;;5037630;28;20124;-72
2023/03/09 07:46:48;;;;;;;16.70;6.90;;;3.30;76.70;;;;;;5037791;28;20046;-72
2023/03/09 07:49:16;;;;;;;15.93;6.65;;;3.30;76.90;;;;;;5044411;28;20162;-73
2023/03/09 07:51:43;;;;;;;15.68;7.43;;;3.30;76.80;;;;;;5042108;28;20156;-73
2023/03/09 07:54:11;;;;;;;17.25;7.53;;;3.30;76.80;;;;;;5043236;28;20077;-73
2023/03/09 07:56:37;;;;;;;18.98;7.72;;;3.30;76.70;;;;;;5040228;28;20367;-72
2023/03/09 07:59:05;;;;;;;17.57;6.97;;;3.30;76.90;;;;;;5041682;28;20132;-74
2023/03/09 08:01:32;;;;;;;17.05;7.32;;;3.30;76.80;;;;;;5044778;28;20095;-73
2023/03/09 08:03:59;;;;;;;16.45;7.35;;;3.30;76.90;;;;;;5042333;28;20461;-73
2023/03/09 08:06:27;;;;;;;18.00;7.70;;;3.30;77.00;;;;;;5042931;28;20136;-74
2023/03/09 08:08:55;;;;;;;15.70;6.97;;;3.30;77.10;;;;;;5042431;28;20192;-73
2023/03/09 08:11:23;;;;;;;18.00;7.50;;;3.30;77.00;;;;;;5045176;28;20061;-73
2023/03/09 08:13:50;;;;;;;15.38;6.68;;;3.30;76.90;;;;;;5046211;28;20057;-73
2023/03/09 08:16:17;;;;;;;15.60;7.53;;;3.30;77.00;;;;;;5044395;28;20052;-73
2023/03/09 08:18:44;;;;;;;15.30;6.78;;;3.30;77.10;;;;;;5044503;28;20525;-73
2023/03/09 08:21:13;;;;;;;16.92;7.30;;;3.30;77.00;;;;;;5045493;28;20046;-74
2023/03/09 08:23:43;;;;;;;15.57;7.00;;;3.30;77.10;;;;;;5043603;28;20128;-73
2023/03/09 08:26:12;;;;;;;15.27;7.43;;;3.30;77.10;;;;;;5041202;28;20132;-74
2023/03/09 08:28:40;;;;;;;18.25;8.20;;;3.30;77.10;;;;;;5047426;28;20665;-73
2023/03/09 08:31:09;;;;;;;18.17;7.63;;;3.30;77.20;;;;;;5043732;28;20053;-74
2023/03/09 08:33:37;;;;;;;17.20;7.18;;;3.20;77.20;;;;;;5043475;28;20050;-75
2023/03/09 08:36:12;;;;;;;16.50;7.03;;;3.20;77.20;;;;;;5035930;28;20115;-74
2023/03/09 08:38:39;;;;;;;17.23;7.30;;;3.20;77.30;;;;;;5047615;28;20056;-74
2023/03/09 08:41:07;;;;;;;18.05;7.72;;;3.20;77.20;;;;;;5046812;28;20100;-74
2023/03/09 08:43:34;;;;;;;17.98;8.60;;;3.20;77.30;;;;;;5032063;28;20133;-73
2023/03/09 08:46:01;;;;;;;16.85;7.45;;;3.20;77.50;;;;;;5046602;28;20133;-74
2023/03/09 08:48:28;;;;;;;16.93;7.63;;;3.30;77.50;;;;;;5044620;28;20054;-74
2023/03/09 08:50:55;;;;;;;15.75;8.00;;;3.30;77.50;;;;;;5027531;28;20045;-74
2023/03/09 08:53:22;;;;;;;17.95;8.20;;;3.30;77.50;;;;;;5040258;28;20081;-74
2023/03/09 08:55:49;;;;;;;19.20;8.13;;;3.30;77.70;;;;;;5043668;28;20045;-74
2023/03/09 08:58:17;;;;;;;17.60;7.18;;;3.30;77.60;;;;;;5047152;28;20077;-74
2023/03/09 09:00:44;;;;;;;17.57;8.03;;;3.30;77.50;;;;;;5043936;28;20456;-74
2023/03/09 09:03:11;;;;;;;17.15;7.40;;;3.30;77.50;;;;;;5040855;28;20735;-74
2023/03/09 09:05:38;;;;;;;16.85;7.75;;;3.40;77.50;;;;;;5043572;28;20508;-74
2023/03/09 09:08:05;;;;;;;18.27;7.50;;;3.40;77.40;;;;;;5045862;28;20137;-74
2023/03/09 09:10:34;;;;;;;17.55;8.05;;;3.40;77.40;;;;;;5043499;28;20038;-74
2023/03/09 09:13:01;;;;;;;18.53;8.00;;;3.40;77.40;;;;;;5040437;28;20520;-74
2023/03/09 09:15:30;;;;;;;18.33;8.25;;;3.50;77.40;;;;;;5027283;28;20056;-74
2023/03/09 09:17:57;;;;;;;17.95;8.25;;;3.50;77.60;;;;;;5045156;28;20576;-74
2023/03/09 09:20:24;;;;;;;17.35;8.18;;;3.50;77.70;;;;;;5045629;28;20386;-74
2023/03/09 09:22:50;;;;;;;18.55;8.73;;;3.50;77.60;;;;;;5042775;28;20551;-74
2023/03/09 09:25:17;;;;;;;17.57;7.73;;;3.50;77.60;;;;;;5045392;28;20093;-74
2023/03/09 09:27:44;;;;;;;17.63;8.15;;;3.50;77.60;;;;;;5029996;28;20139;-74
2023/03/09 09:30:12;;;;;;;17.13;8.00;;;3.60;77.70;;;;;;5029762;28;20060;-74
2023/03/09 09:32:41;;;;;;;18.20;8.30;;;3.60;77.70;;;;;;5044449;28;20196;-74
2023/03/09 09:35:10;;;;;;;17.73;7.88;;;3.60;77.60;;;;;;5037720;28;20064;-74
2023/03/09 09:37:37;;;;;;;17.40;7.30;;;3.70;77.50;;;;;;5029198;28;20054;-74
2023/03/09 09:40:05;;;;;;;18.45;8.63;;;3.70;77.40;;;;;;5046565;28;20152;-74
2023/03/09 09:42:35;;;;;;;17.75;8.15;;;3.70;77.40;;;;;;5042638;28;20053;-74
2023/03/09 09:45:05;;;;;;;18.35;7.95;;;3.70;77.60;;;;;;5040714;28;20099;-74
2023/03/09 09:47:35;;;;;;;17.60;8.25;;;3.80;77.50;;;;;;5045401;28;20057;-74
2023/03/09 09:50:04;;;;;;;17.20;7.93;;;3.80;77.50;;;;;;5042252;28;20092;-74
2023/03/09 09:52:45;;;;;;;16.73;7.38;;;3.90;77.50;;;;;;5048198;28;20049;-74
2023/03/09 09:55:19;;;;;;;17.27;7.90;;;3.90;77.30;;;;;;5028786;28;20049;-74
2023/03/09 09:57:49;;;;;;;16.40;7.50;;;3.90;77.30;;;;;;5041231;28;20077;-74
2023/03/09 10:00:20;;;;;;;19.70;8.73;;;3.90;77.20;;;;;;5041581;28;20041;-74
2023/03/09 10:03:01;;;;;;;16.87;7.13;;;3.90;77.20;;;;;;5039344;28;20511;-74
2023/03/09 10:05:36;;;;;;;16.80;7.55;;;4.00;77.10;;;;;;5047370;28;20053;-74
2023/03/09 10:08:20;;;;;;;16.38;7.20;;;4.00;77.00;;;;;;5046842;28;20139;-74
2023/03/09 10:10:49;;;;;;;15.52;6.93;;;4.00;77.00;;;;;;5058792;28;20124;-74
2023/03/09 10:13:22;;;;;;;16.90;7.50;;;4.00;76.70;;;;;;5035382;28;20045;-74
2023/03/09 10:15:50;;;;;;;16.97;7.90;;;4.00;76.70;;;;;;5038805;28;20160;-74
2023/03/09 10:18:23;;;;;;;16.27;7.63;;;4.00;76.90;;;;;;5035031;28;20125;-74
2023/03/09 10:20:54;;;;;;;15.40;7.22;;;4.10;76.90;;;;;;5045372;28;20966;-74
2023/03/09 10:23:25;;;;;;;16.95;7.38;;;4.10;76.80;;;;;;5044220;28;20520;-74
2023/03/09 10:25:57;;;;;;;17.20;7.53;;;4.10;76.70;;;;;;5040377;28;20057;-74
2023/03/09 10:28:29;;;;;;;17.77;7.97;;;4.10;76.80;;;;;;5040236;28;20045;-74
2023/03/09 10:31:00;;;;;;;16.50;7.28;;;4.20;76.50;;;;;;5046382;28;20072;-74
2023/03/09 10:33:38;;;;;;;17.15;8.00;;;4.10;76.50;;;;;;5041810;28;20081;-74
2023/03/09 10:36:10;;;;;;;17.38;8.00;;;4.20;76.60;;;;;;5028337;28;20528;-74
2023/03/09 10:38:39;;;;;;;17.80;8.15;;;4.20;76.50;;;;;;5039599;28;20561;-74
2023/03/09 10:41:14;;;;;;;16.70;7.23;;;4.20;76.60;;;;;;5046794;28;20109;-74
2023/03/09 10:43:41;;;;;;;17.58;7.93;;;4.30;76.60;;;;;;5040858;28;20701;-74
2023/03/09 10:46:14;;;;;;;18.15;7.82;;;4.30;76.50;;;;;;5029945;28;20212;-74
2023/03/09 10:48:42;;;;;;;15.90;7.53;;;4.30;76.50;;;;;;5033125;28;20056;-74
2023/03/09 10:51:25;;;;;;;18.05;7.90;;;4.30;76.60;;;;;;5032246;28;20591;-74
2023/03/09 10:53:54;;;;;;;15.47;7.77;;;4.30;76.40;;;;;;5041509;28;20057;-74
2023/03/09 10:56:23;;;;;;;18.48;7.68;;;4.30;76.20;;;;;;5032742;28;20057;-74
2023/03/09 10:59:12;;;;;;;17.40;7.95;;;4.30;76.40;;;;;;5047833;28;20156;-74
2023/03/09 11:01:41;;;;;;;15.23;6.97;;;4.30;76.40;;;;;;5043096;28;20066;-74
2023/03/09 11:04:36;;;;;;;15.90;6.85;;;4.30;76.40;;;;;;5011193;28;20058;-74
2023/03/09 11:07:17;;;;;;;16.80;7.70;;;4.30;76.40;;;;;;5013801;28;20053;-74
2023/03/09 11:09:48;;;;;;;16.85;7.38;;;4.40;76.50;;;;;;5044520;28;20061;-74
2023/03/09 11:12:23;;;;;;;15.93;7.22;;;4.30;76.50;;;;;;5027852;28;20054;-74
2023/03/09 11:14:53;;;;;;;16.42;7.32;;;4.40;76.30;;;;;;5033110;28;20060;-74
2023/03/09 11:17:35;;;;;;;16.20;7.78;;;4.40;76.30;;;;;;5041736;28;20063;-74
2023/03/09 11:20:30;;;;;;;17.23;7.87;;;4.40;76.30;;;;;;5040701;28;20053;-74
2023/03/09 11:23:23;;;;;;;18.08;7.90;;;4.40;76.20;;;;;;5025649;28;20093;-74
2023/03/09 11:26:04;;;;;;;16.23;7.30;;;4.40;76.40;;;;;;5026263;28;20201;-74
2023/03/09 11:28:42;;;;;;;16.95;7.90;;;4.40;76.50;;;;;;5037136;28;20077;-73
2023/03/09 11:31:13;;;;;;;15.70;6.80;;;4.40;76.50;;;;;;5043396;28;20077;-74
2023/03/09 11:33:41;;;;;;;15.70;7.20;;;4.40;76.40;;;;;;5038321;28;20531;-74
2023/03/09 11:36:12;;;;;;;16.20;7.35;;;4.50;76.40;;;;;;5039319;28;20057;-74
2023/03/09 11:38:42;;;;;;;16.15;7.40;;;4.50;76.20;;;;;;5039804;28;20350;-73
2023/03/09 11:41:16;;;;;;;16.50;7.65;;;4.50;76.30;;;;;;5036745;28;20633;-74
2023/03/09 11:43:46;;;;;;;17.45;8.13;;;4.50;76.40;;;;;;5037461;28;20073;-73
2023/03/09 11:46:15;;;;;;;17.27;7.57;;;4.50;76.10;;;;;;5037450;28;20058;-74
2023/03/09 11:48:46;;;;;;;15.25;7.05;;;4.50;76.00;;;;;;5033540;28;20072;-74
2023/03/09 11:51:19;;;;;;;17.08;7.55;;;4.50;76.00;;;;;;5038357;28;20080;-75
2023/03/09 11:53:55;;;;;;;16.90;7.68;;;4.50;76.10;;;;;;5043022;28;20041;-74
2023/03/09 11:56:26;;;;;;;16.42;7.53;;;4.50;76.10;;;;;;5036992;28;20124;-74
2023/03/09 11:58:59;;;;;;;17.10;7.60;;;4.50;76.10;;;;;;5040288;28;20054;-74
2023/03/09 12:01:31;;;;;;;16.35;7.20;;;4.50;76.10;;;;;;5037963;28;20065;-74
2023/03/09 12:04:00;;;;;;;14.80;6.55;;;4.50;76.10;;;;;;5015630;28;20069;-74
2023/03/09 12:06:40;;;;;;;16.38;6.47;;;4.50;76.20;;;;;;5038156;28;20073;-74
2023/03/09 12:09:12;;;;;;;15.52;7.28;;;4.50;76.00;;;;;;5036145;28;20046;-74
2023/03/09 12:11:44;;;;;;;16.00;7.10;;;4.50;76.10;;;;;;5044617;28;20049;-74
2023/03/09 12:14:19;;;;;;;15.80;7.03;;;4.50;76.00;;;;;;5042993;28;20407;-74
2023/03/09 12:16:51;;;;;;;17.20;7.20;;;4.60;76.00;;;;;;5044624;28;20057;-75
2023/03/09 12:19:20;;;;;;;16.45;7.60;;;4.60;75.90;;;;;;5042890;28;20128;-74
2023/03/09 12:21:58;;;;;;;16.73;7.30;;;4.60;75.90;;;;;;5044217;28;20045;-76
2023/03/09 12:24:34;;;;;;;18.33;7.80;;;4.50;75.90;;;;;;5035149;28;20129;-74
2023/03/09 12:27:06;;;;;;;16.08;6.70;;;4.60;75.90;;;;;;5037683;28;20117;-76
2023/03/09 12:29:41;;;;;;;14.52;6.72;;;4.60;75.90;;;;;;5036560;28;20079;-75
2023/03/09 12:32:19;;;;;;;16.10;7.35;;;4.60;75.60;;;;;;5035823;28;20046;-74
2023/03/09 12:34:48;;;;;;;15.80;6.90;;;4.60;75.90;;;;;;5040238;28;20498;-74
2023/03/09 12:37:54;;;;;;;15.70;6.80;;;4.60;75.80;;;;;;5038025;28;20168;-75
2023/03/09 12:40:33;;;;;;;17.23;8.25;;;4.70;75.80;;;;;;4998298;28;20133;-75
2023/03/09 12:43:43;;;;;;;15.93;7.30;;;4.60;75.70;;;;;;4980613;28;20506;-75
2023/03/09 12:46:46;;;;;;;15.40;6.65;;;4.70;75.70;;;;;;5035183;28;20050;-75
2023/03/09 12:49:15;;;;;;;14.63;6.63;;;4.70;75.70;;;;;;5041380;28;20476;-74
2023/03/09 12:51:48;;;;;;;17.40;7.40;;;4.70;75.80;;;;;;5061238;28;20629;-74
2023/03/09 12:54:22;;;;;;;15.32;6.50;;;4.70;75.70;;;;;;5040328;28;20053;-75
2023/03/09 12:56:52;;;;;;;15.38;6.75;;;4.70;75.60;;;;;;5042018;28;20046;-74
2023/03/09 12:59:27;;;;;;;16.88;7.70;;;4.70;75.70;;;;;;5039467;28;20908;-75
2023/03/09 13:01:55;;;;;;;16.33;7.35;;;4.70;75.50;;;;;;5038539;28;20050;-75